Time;durP1;ratioP1;P1;durP2;ratioP2;P2;SDS_P1;SDS_P2;PMS_P1;PMS_P2;Temp;Humidity;BMP_temperature;BMP_pressure;BME280_temperature;BME280_humidity;BME280_pressure;Samples;Min_cycle;Max_cycle;Signal;HPM_P1;HPM_P2
2021/04/07 00:01:31;;;;;;;6.50;2.80;;;6.40;56.20;;;;;;5083180;28;20119;-65
2021/04/07 00:03:57;;;;;;;4.85;2.92;;;6.40;56.10;;;;;;5091803;28;20420;-67
2021/04/07 00:06:23;;;;;;;4.38;2.88;;;6.40;56.10;;;;;;5077583;28;20041;-66
2021/04/07 00:08:50;;;;;;;7.53;3.08;;;6.30;56.00;;;;;;5081691;28;20028;-66
2021/04/07 00:11:17;;;;;;;4.70;3.50;;;6.30;55.90;;;;;;5091445;28;20501;-65
2021/04/07 00:13:44;;;;;;;5.18;3.22;;;6.20;56.00;;;;;;5086907;28;20025;-67
2021/04/07 00:16:11;;;;;;;4.68;2.97;;;6.20;56.10;;;;;;5089700;28;20413;-65
2021/04/07 00:18:37;;;;;;;5.30;3.20;;;6.20;56.30;;;;;;5076646;28;20028;-66
2021/04/07 00:21:04;;;;;;;6.07;3.42;;;6.20;56.40;;;;;;5060393;28;20035;-66
2021/04/07 00:23:30;;;;;;;4.97;3.40;;;6.20;56.60;;;;;;5091488;28;20028;-64
2021/04/07 00:25:56;;;;;;;4.53;3.75;;;6.20;56.50;;;;;;5091488;28;20112;-65
2021/04/07 00:28:22;;;;;;;4.65;3.17;;;6.20;56.60;;;;;;5094983;28;20107;-66
2021/04/07 00:30:49;;;;;;;6.68;4.00;;;6.10;56.60;;;;;;5093655;28;20525;-64
2021/04/07 00:33:17;;;;;;;6.72;3.80;;;6.10;56.70;;;;;;5093180;28;20027;-64
2021/04/07 00:35:43;;;;;;;6.10;3.38;;;6.10;57.20;;;;;;5092347;28;20037;-65
2021/04/07 00:38:13;;;;;;;6.57;3.58;;;6.10;56.80;;;;;;5091412;28;20020;-65
2021/04/07 00:40:41;;;;;;;4.70;3.50;;;6.10;57.20;;;;;;5091269;28;20489;-67
2021/04/07 00:43:07;;;;;;;4.55;3.55;;;6.00;57.40;;;;;;5095185;28;20031;-66
2021/04/07 00:45:33;;;;;;;3.80;3.05;;;6.00;57.50;;;;;;5092950;28;20021;-65
2021/04/07 00:47:59;;;;;;;4.65;2.90;;;6.00;57.60;;;;;;5094093;28;20622;-66
2021/04/07 00:50:27;;;;;;;5.70;3.60;;;6.00;57.80;;;;;;5093977;28;20663;-65
2021/04/07 00:52:53;;;;;;;5.13;3.70;;;6.00;58.20;;;;;;5093935;28;20019;-66
2021/04/07 00:55:22;;;;;;;4.05;3.28;;;5.90;58.40;;;;;;5093675;28;20097;-66
2021/04/07 00:57:50;;;;;;;5.20;3.15;;;5.90;58.40;;;;;;5092534;28;20024;-66
2021/04/07 01:00:18;;;;;;;3.90;2.70;;;5.80;58.40;;;;;;5091281;28;20208;-65
2021/04/07 01:02:45;;;;;;;3.70;2.92;;;5.80;58.50;;;;;;5091551;28;20027;-66
2021/04/07 01:05:12;;;;;;;6.22;3.80;;;5.80;58.60;;;;;;5093074;28;20032;-65
2021/04/07 01:07:38;;;;;;;5.05;3.47;;;5.80;58.80;;;;;;5092547;28;20039;-66
2021/04/07 01:10:08;;;;;;;4.55;3.30;;;5.80;59.00;;;;;;5093205;28;20676;-65
2021/04/07 01:12:34;;;;;;;4.20;3.33;;;5.80;59.10;;;;;;5072272;28;20389;-67
2021/04/07 01:15:01;;;;;;;5.78;3.25;;;5.80;59.30;;;;;;5091975;28;20023;-68
2021/04/07 01:17:27;;;;;;;3.72;3.13;;;5.70;59.20;;;;;;5090508;28;20505;-66
2021/04/07 01:19:53;;;;;;;4.70;3.80;;;5.70;59.40;;;;;;5091738;28;20028;-65
2021/04/07 01:22:22;;;;;;;4.43;3.05;;;5.80;59.60;;;;;;5090483;28;20035;-67
2021/04/07 01:24:48;;;;;;;6.07;3.42;;;5.80;59.60;;;;;;5091534;28;20028;-66
2021/04/07 01:27:16;;;;;;;4.38;3.53;;;5.80;59.70;;;;;;5091894;28;20499;-67
2021/04/07 01:29:43;;;;;;;4.72;3.30;;;5.80;59.70;;;;;;5091493;28;20043;-66
2021/04/07 01:32:09;;;;;;;3.47;3.17;;;5.80;59.60;;;;;;5089141;28;20099;-65
2021/04/07 01:34:41;;;;;;;5.97;3.42;;;5.80;59.60;;;;;;5090897;28;20111;-66
2021/04/07 01:37:08;;;;;;;3.78;2.90;;;5.70;59.60;;;;;;5092299;28;20024;-66
2021/04/07 01:39:34;;;;;;;4.78;3.40;;;5.70;59.60;;;;;;5090326;28;20430;-65
2021/04/07 01:42:00;;;;;;;4.88;3.55;;;5.70;59.70;;;;;;5089053;28;20065;-67
2021/04/07 01:44:26;;;;;;;5.15;3.80;;;5.70;59.90;;;;;;5091907;28;20431;-65
2021/04/07 01:46:52;;;;;;;5.18;3.35;;;5.70;60.70;;;;;;5091980;28;20032;-66
2021/04/07 01:49:19;;;;;;;5.20;3.38;;;5.70;59.90;;;;;;5073748;28;20051;-67
2021/04/07 01:51:45;;;;;;;5.80;3.38;;;5.70;59.80;;;;;;5092396;28;20020;-67
2021/04/07 01:54:14;;;;;;;3.30;2.70;;;5.80;59.80;;;;;;5088544;28;20028;-67
2021/04/07 01:56:47;;;;;;;4.00;2.88;;;5.70;59.80;;;;;;5071731;28;20020;-65
2021/04/07 01:59:14;;;;;;;6.70;2.75;;;5.70;59.80;;;;;;5090279;28;20027;-68
2021/04/07 02:01:41;;;;;;;5.25;3.53;;;5.70;59.70;;;;;;5088501;28;20110;-66
2021/04/07 02:04:06;;;;;;;3.30;2.25;;;5.60;59.60;;;;;;5091756;28;20024;-66
2021/04/07 02:06:32;;;;;;;3.33;2.60;;;5.60;59.50;;;;;;5091814;28;20108;-67
2021/04/07 02:08:58;;;;;;;3.78;2.80;;;5.50;59.30;;;;;;5091793;28;20031;-66
2021/04/07 02:11:24;;;;;;;2.85;2.30;;;5.50;59.20;;;;;;5091845;28;20492;-66
2021/04/07 02:13:52;;;;;;;3.10;2.47;;;5.40;59.30;;;;;;5071064;28;20119;-66
2021/04/07 02:16:18;;;;;;;3.63;2.80;;;5.30;59.30;;;;;;5093466;28;20028;-67
2021/04/07 02:18:43;;;;;;;3.08;2.20;;;5.30;59.50;;;;;;5070536;28;20019;-66
2021/04/07 02:21:11;;;;;;;3.22;2.58;;;5.30;59.50;;;;;;5073675;28;20097;-65
2021/04/07 02:23:37;;;;;;;4.47;3.08;;;5.20;59.70;;;;;;5092999;28;20020;-66
2021/04/07 02:26:05;;;;;;;2.97;2.60;;;5.20;59.70;;;;;;5093129;28;20047;-65
2021/04/07 02:28:31;;;;;;;3.60;2.78;;;5.10;59.50;;;;;;5093009;28;20073;-67
2021/04/07 02:30:57;;;;;;;4.82;2.63;;;5.10;59.50;;;;;;5093049;28;20393;-66
2021/04/07 02:33:31;;;;;;;2.75;2.30;;;5.00;59.50;;;;;;5085417;28;20024;-66
2021/04/07 02:35:57;;;;;;;4.35;2.83;;;5.00;59.70;;;;;;5077550;28;20036;-66
2021/04/07 02:38:23;;;;;;;2.88;2.58;;;5.00;59.90;;;;;;5092879;28;20153;-67
2021/04/07 02:40:49;;;;;;;4.38;2.65;;;5.00;60.10;;;;;;5092784;28;20031;-68
2021/04/07 02:43:14;;;;;;;4.70;2.80;;;5.00;60.30;;;;;;5093095;28;20720;-66
2021/04/07 02:45:40;;;;;;;3.85;3.05;;;5.00;60.50;;;;;;5085718;28;20109;-66
2021/04/07 02:48:06;;;;;;;4.43;2.97;;;5.00;60.70;;;;;;5093198;28;20473;-68
2021/04/07 02:50:32;;;;;;;6.75;3.20;;;5.00;60.90;;;;;;5093614;28;20024;-66
2021/04/07 02:52:58;;;;;;;4.32;3.20;;;5.00;61.10;;;;;;5074254;28;20078;-66
2021/04/07 02:55:23;;;;;;;7.13;3.72;;;5.10;61.30;;;;;;5073408;28;20056;-66
2021/04/07 02:57:49;;;;;;;4.85;3.88;;;5.10;61.30;;;;;;5073598;28;20031;-66
2021/04/07 03:00:16;;;;;;;5.85;4.15;;;5.20;61.50;;;;;;5073329;28;20381;-66
2021/04/07 03:02:42;;;;;;;5.20;4.28;;;5.20;61.60;;;;;;5080844;28;20020;-66
2021/04/07 03:05:08;;;;;;;4.22;3.30;;;5.30;61.50;;;;;;5093452;28;20024;-67
2021/04/07 03:07:38;;;;;;;5.85;3.58;;;5.30;61.30;;;;;;5076803;28;20028;-65
2021/04/07 03:10:05;;;;;;;7.80;5.65;;;5.30;61.20;;;;;;5073009;28;20021;-67
2021/04/07 03:12:31;;;;;;;8.77;3.97;;;5.40;61.30;;;;;;5073064;28;20420;-66
2021/04/07 03:14:57;;;;;;;8.63;3.78;;;5.40;61.50;;;;;;5085208;28;20025;-67
2021/04/07 03:17:23;;;;;;;9.57;4.45;;;5.40;61.30;;;;;;5093251;28;20027;-66
2021/04/07 03:19:48;;;;;;;5.10;3.80;;;5.40;61.10;;;;;;5067032;28;20111;-66
2021/04/07 03:22:14;;;;;;;5.90;4.25;;;5.50;61.00;;;;;;5076104;28;20113;-65
2021/04/07 03:24:40;;;;;;;6.95;4.65;;;5.50;61.20;;;;;;5081810;28;20021;-67
2021/04/07 03:27:05;;;;;;;6.50;4.38;;;5.50;61.40;;;;;;5072683;28;20555;-67
2021/04/07 03:29:31;;;;;;;5.95;4.38;;;5.50;61.30;;;;;;5059715;28;20148;-65
2021/04/07 03:31:57;;;;;;;11.32;4.85;;;5.50;61.40;;;;;;5092998;28;20078;-66
2021/04/07 03:34:23;;;;;;;9.00;5.05;;;5.50;61.30;;;;;;5093001;28;20024;-68
2021/04/07 03:36:48;;;;;;;5.40;4.15;;;5.50;61.30;;;;;;5083542;28;20495;-67
2021/04/07 03:39:14;;;;;;;7.82;4.72;;;5.50;61.10;;;;;;5079384;28;20060;-66
2021/04/07 03:41:40;;;;;;;6.45;4.72;;;5.50;61.30;;;;;;5092846;28;20052;-67
2021/04/07 03:44:06;;;;;;;6.80;4.93;;;5.50;61.40;;;;;;5092460;28;20024;-67
2021/04/07 03:46:31;;;;;;;9.15;5.05;;;5.50;61.60;;;;;;5074749;28;20459;-66
2021/04/07 03:48:57;;;;;;;7.07;4.38;;;5.50;61.60;;;;;;5092608;28;20058;-66
2021/04/07 03:51:24;;;;;;;4.93;4.18;;;5.50;61.70;;;;;;5089371;28;20514;-67
2021/04/07 03:53:50;;;;;;;15.13;5.13;;;5.50;61.60;;;;;;5083002;28;20119;-66
2021/04/07 03:56:16;;;;;;;7.30;4.70;;;5.50;61.70;;;;;;5072859;28;20070;-67
2021/04/07 03:58:42;;;;;;;7.30;4.90;;;5.50;61.80;;;;;;5073746;28;20485;-66
2021/04/07 04:01:08;;;;;;;8.05;5.32;;;5.50;61.80;;;;;;5092497;28;20023;-66
2021/04/07 04:03:33;;;;;;;8.40;5.30;;;5.50;61.90;;;;;;5092607;28;20024;-66
2021/04/07 04:05:59;;;;;;;9.48;5.68;;;5.50;61.90;;;;;;5090203;28;20385;-66
2021/04/07 04:08:25;;;;;;;9.05;5.70;;;5.50;61.90;;;;;;5054297;28;20025;-65
2021/04/07 04:10:51;;;;;;;6.75;5.10;;;5.50;61.90;;;;;;5054232;28;20097;-68
2021/04/07 04:13:16;;;;;;;7.40;4.95;;;5.50;61.60;;;;;;5072473;28;20095;-67
2021/04/07 04:15:42;;;;;;;8.30;5.22;;;5.60;61.70;;;;;;5090251;28;20145;-67
2021/04/07 04:18:09;;;;;;;8.90;6.07;;;5.50;61.50;;;;;;5092506;28;20020;-67
2021/04/07 04:20:35;;;;;;;6.75;5.45;;;5.60;61.60;;;;;;5092522;28;20054;-67
2021/04/07 04:23:01;;;;;;;8.27;5.20;;;5.60;61.90;;;;;;5072465;28;20060;-67
2021/04/07 04:25:27;;;;;;;8.85;5.50;;;5.60;61.90;;;;;;5082421;28;20070;-66
2021/04/07 04:27:53;;;;;;;5.78;4.45;;;5.60;61.90;;;;;;5092161;28;20081;-66
2021/04/07 04:30:21;;;;;;;6.55;4.70;;;5.60;61.80;;;;;;5092458;28;20063;-67
2021/04/07 04:32:49;;;;;;;8.00;5.38;;;5.60;61.90;;;;;;5092414;28;20020;-67
2021/04/07 04:35:18;;;;;;;6.32;4.65;;;5.60;61.90;;;;;;5092421;28;20371;-66
2021/04/07 04:37:46;;;;;;;9.15;5.90;;;5.60;61.90;;;;;;5092564;28;20020;-66
2021/04/07 04:40:13;;;;;;;5.93;4.32;;;5.60;61.80;;;;;;5091628;28;20067;-67
2021/04/07 04:42:39;;;;;;;6.38;4.50;;;5.70;61.70;;;;;;5095482;28;20020;-66
2021/04/07 04:45:06;;;;;;;5.63;4.30;;;5.60;61.60;;;;;;5095455;28;20039;-65
2021/04/07 04:47:33;;;;;;;9.82;5.05;;;5.60;61.60;;;;;;5094394;28;20051;-68
2021/04/07 04:49:58;;;;;;;6.25;4.75;;;5.70;61.70;;;;;;5077410;28;20061;-66
2021/04/07 04:52:24;;;;;;;8.07;5.10;;;5.70;61.50;;;;;;5095722;28;20346;-65
2021/04/07 04:54:50;;;;;;;9.38;5.50;;;5.70;61.40;;;;;;5090505;28;20021;-67
2021/04/07 04:57:16;;;;;;;8.63;5.43;;;5.70;61.30;;;;;;5075448;28;20053;-67
2021/04/07 04:59:43;;;;;;;8.40;5.50;;;5.70;61.10;;;;;;5081044;28;20032;-66
2021/04/07 05:02:09;;;;;;;8.20;6.00;;;5.60;60.80;;;;;;5095764;28;20028;-67
2021/04/07 05:04:35;;;;;;;8.00;4.53;;;5.60;60.80;;;;;;5095669;28;20385;-66
2021/04/07 05:07:01;;;;;;;6.00;4.35;;;5.60;60.90;;;;;;5095617;28;20032;-66
2021/04/07 05:09:27;;;;;;;8.75;5.90;;;5.70;61.30;;;;;;5095463;28;20032;-66
2021/04/07 05:11:53;;;;;;;11.07;5.68;;;5.70;61.70;;;;;;5092791;28;20027;-67
2021/04/07 05:14:19;;;;;;;5.95;4.47;;;5.80;61.80;;;;;;5081897;28;20392;-66
2021/04/07 05:16:45;;;;;;;8.32;5.55;;;5.90;61.80;;;;;;5095505;28;20453;-67
2021/04/07 05:19:11;;;;;;;9.57;5.32;;;5.90;61.40;;;;;;5093819;28;20089;-67
2021/04/07 05:21:37;;;;;;;12.13;6.15;;;5.90;61.30;;;;;;5089485;28;20082;-68
2021/04/07 05:24:03;;;;;;;6.30;4.68;;;6.00;61.10;;;;;;5075192;28;20020;-65
2021/04/07 05:26:29;;;;;;;7.22;5.15;;;6.00;60.80;;;;;;5093656;28;20111;-65
2021/04/07 05:28:55;;;;;;;9.35;5.65;;;5.90;60.40;;;;;;5094570;28;20103;-67
2021/04/07 05:31:20;;;;;;;8.45;5.10;;;5.90;60.40;;;;;;5074860;28;20036;-66
2021/04/07 05:33:46;;;;;;;7.35;4.28;;;5.80;60.50;;;;;;5074788;28;20016;-66
2021/04/07 05:36:15;;;;;;;7.93;4.93;;;5.80;60.50;;;;;;5087787;28;20020;-67
2021/04/07 05:38:41;;;;;;;4.93;4.18;;;5.70;60.90;;;;;;5095078;28;20039;-66
2021/04/07 05:41:07;;;;;;;5.65;4.38;;;5.60;60.90;;;;;;5094575;28;20020;-65
2021/04/07 05:43:35;;;;;;;7.03;4.97;;;5.60;61.00;;;;;;5094865;28;20013;-67
2021/04/07 05:46:03;;;;;;;6.53;4.32;;;5.60;61.50;;;;;;5086927;28;20029;-65
2021/04/07 05:48:29;;;;;;;5.90;4.68;;;5.50;61.60;;;;;;5093048;28;20595;-66
2021/04/07 05:50:55;;;;;;;7.95;4.63;;;5.50;61.70;;;;;;5094467;28;20035;-67
2021/04/07 05:53:21;;;;;;;7.78;4.18;;;5.50;61.80;;;;;;5094288;28;20326;-67
2021/04/07 05:55:53;;;;;;;9.95;4.75;;;5.50;62.00;;;;;;5076280;28;20127;-67
2021/04/07 05:58:20;;;;;;;8.55;5.32;;;5.60;62.20;;;;;;5076420;28;20027;-68
2021/04/07 06:00:47;;;;;;;6.68;5.18;;;5.60;62.30;;;;;;5093005;28;20043;-67
2021/04/07 06:03:13;;;;;;;6.40;5.20;;;5.60;62.50;;;;;;5092798;28;20028;-67
2021/04/07 06:05:41;;;;;;;6.65;5.28;;;5.70;62.70;;;;;;5094037;28;20028;-67
2021/04/07 06:08:07;;;;;;;7.03;5.38;;;5.70;62.80;;;;;;5094379;28;20024;-67
2021/04/07 06:10:36;;;;;;;9.30;6.47;;;5.70;62.70;;;;;;5094216;28;20367;-67
2021/04/07 06:13:03;;;;;;;12.65;6.53;;;5.80;62.30;;;;;;5076240;28;20111;-67
2021/04/07 06:15:29;;;;;;;9.68;6.45;;;5.80;62.00;;;;;;5070264;28;20027;-66
2021/04/07 06:17:58;;;;;;;10.82;6.32;;;5.80;61.90;;;;;;5094123;28;20565;-66
2021/04/07 06:20:25;;;;;;;11.82;6.93;;;5.90;62.10;;;;;;5075583;28;20038;-67
2021/04/07 06:22:52;;;;;;;7.93;5.88;;;5.90;62.10;;;;;;5093921;28;20035;-67
2021/04/07 06:25:18;;;;;;;9.38;5.55;;;5.90;62.10;;;;;;5091692;28;20536;-66
2021/04/07 06:27:48;;;;;;;10.55;7.03;;;6.00;62.90;;;;;;5093514;28;20028;-66
2021/04/07 06:30:15;;;;;;;10.98;7.05;;;6.10;62.60;;;;;;5093846;28;20028;-67
2021/04/07 06:32:41;;;;;;;12.63;6.00;;;6.10;61.90;;;;;;5079397;28;20020;-66
2021/04/07 06:35:07;;;;;;;9.50;6.65;;;6.20;61.80;;;;;;5081016;28;20504;-66
2021/04/07 06:37:33;;;;;;;8.45;5.57;;;6.30;61.10;;;;;;5075347;28;20473;-67
2021/04/07 06:39:59;;;;;;;8.85;5.97;;;6.30;60.30;;;;;;5075349;28;20032;-67
2021/04/07 06:42:25;;;;;;;9.00;5.93;;;6.40;60.10;;;;;;5091137;28;20025;-67
2021/04/07 06:44:51;;;;;;;11.90;5.60;;;6.30;59.30;;;;;;5087821;28;20039;-67
2021/04/07 06:47:18;;;;;;;7.80;5.70;;;6.30;59.20;;;;;;5090480;28;20036;-68
2021/04/07 06:49:45;;;;;;;15.65;6.65;;;6.40;59.20;;;;;;5091914;28;20615;-67
2021/04/07 06:52:19;;;;;;;8.25;5.28;;;6.40;58.90;;;;;;5075249;28;20039;-68
2021/04/07 06:54:47;;;;;;;9.93;6.00;;;6.40;59.20;;;;;;5090184;28;20479;-67
2021/04/07 06:57:16;;;;;;;7.15;5.22;;;6.50;59.60;;;;;;5078015;28;20036;-69
2021/04/07 06:59:45;;;;;;;10.70;6.25;;;6.60;59.90;;;;;;5077359;28;20086;-67
2021/04/07 07:02:12;;;;;;;8.65;6.22;;;6.70;59.70;;;;;;5077003;28;20028;-69
2021/04/07 07:04:43;;;;;;;7.78;5.00;;;6.70;59.00;;;;;;5080327;28;20111;-67
2021/04/07 07:07:09;;;;;;;7.63;5.30;;;6.80;59.20;;;;;;5055170;28;20039;-67
2021/04/07 07:09:34;;;;;;;9.68;6.20;;;6.90;59.60;;;;;;5054915;28;20029;-67
2021/04/07 07:12:01;;;;;;;9.18;5.82;;;7.00;59.30;;;;;;5073044;28;20103;-67
2021/04/07 07:14:28;;;;;;;5.80;4.75;;;7.00;58.60;;;;;;5073109;28;20020;-66
2021/04/07 07:16:56;;;;;;;9.30;5.80;;;7.10;58.80;;;;;;5085573;28;20477;-66
2021/04/07 07:19:25;;;;;;;8.77;5.85;;;7.10;58.60;;;;;;5093196;28;20063;-69
2021/04/07 07:21:56;;;;;;;7.13;5.15;;;7.20;58.30;;;;;;5091090;28;20039;-67
2021/04/07 07:24:28;;;;;;;8.23;5.85;;;7.30;58.00;;;;;;5086155;28;20024;-67
2021/04/07 07:26:54;;;;;;;6.57;4.40;;;7.30;57.50;;;;;;5092330;28;20035;-68
2021/04/07 07:29:25;;;;;;;13.60;5.20;;;7.40;58.10;;;;;;5090858;28;20059;-67
2021/04/07 07:32:17;;;;;;;8.30;4.43;;;7.40;57.80;;;;;;5079833;28;20029;-68
2021/04/07 07:34:43;;;;;;;6.55;3.95;;;7.50;57.60;;;;;;5084355;28;20520;-66
2021/04/07 07:37:09;;;;;;;4.22;3.35;;;7.70;57.40;;;;;;5079686;28;20064;-67
2021/04/07 07:39:36;;;;;;;5.57;3.60;;;7.70;57.40;;;;;;5074622;28;20031;-65
2021/04/07 07:42:07;;;;;;;5.57;3.47;;;7.80;57.00;;;;;;5092501;28;20106;-67
2021/04/07 07:44:39;;;;;;;4.68;3.15;;;7.90;56.40;;;;;;5086115;28;20145;-67
2021/04/07 07:47:20;;;;;;;4.20;2.95;;;8.00;55.70;;;;;;5079059;28;20035;-66
2021/04/07 07:50:14;;;;;;;6.50;3.28;;;8.00;54.80;;;;;;5082538;28;20075;-66
2021/04/07 07:52:42;;;;;;;3.80;2.85;;;8.00;54.50;;;;;;5071570;28;20029;-67
2021/04/07 07:55:19;;;;;;;3.88;2.80;;;8.00;54.50;;;;;;5072188;28;20035;-65
2021/04/07 07:57:54;;;;;;;4.75;2.72;;;7.90;55.10;;;;;;5075807;28;20008;-66
2021/04/07 08:00:22;;;;;;;6.28;3.13;;;7.90;54.40;;;;;;5081021;28;20032;-66
2021/04/07 08:02:47;;;;;;;6.72;3.30;;;7.90;54.10;;;;;;5073445;28;20028;-65
2021/04/07 08:05:17;;;;;;;4.07;2.67;;;7.90;53.90;;;;;;5084659;28;20356;-65
2021/04/07 08:07:43;;;;;;;4.88;3.05;;;8.00;55.00;;;;;;5080141;28;20542;-66
2021/04/07 08:10:10;;;;;;;4.78;3.00;;;8.10;54.90;;;;;;5091063;28;20024;-67
2021/04/07 08:12:37;;;;;;;3.67;2.90;;;8.20;53.70;;;;;;5073365;28;20111;-69
2021/04/07 08:15:04;;;;;;;5.40;3.70;;;8.30;54.20;;;;;;5082344;28;20426;-65
2021/04/07 08:17:30;;;;;;;3.90;2.90;;;8.50;53.80;;;;;;5080923;28;20051;-65
2021/04/07 08:20:00;;;;;;;3.47;2.60;;;8.50;52.60;;;;;;5095709;28;20038;-66
2021/04/07 08:22:28;;;;;;;4.70;3.05;;;8.70;53.60;;;;;;5093798;28;20090;-68
2021/04/07 08:24:57;;;;;;;4.57;2.95;;;8.80;53.40;;;;;;5089482;28;20025;-66
2021/04/07 08:27:28;;;;;;;4.50;2.95;;;9.00;53.50;;;;;;5080445;28;20416;-65
2021/04/07 08:29:54;;;;;;;4.97;3.05;;;9.10;52.30;;;;;;5083129;28;20032;-65
2021/04/07 08:32:21;;;;;;;3.78;2.75;;;9.20;52.40;;;;;;5069216;28;20025;-64
2021/04/07 08:34:47;;;;;;;4.32;3.03;;;9.20;51.90;;;;;;5082207;28;20020;-66
2021/04/07 08:37:23;;;;;;;6.22;3.03;;;9.30;52.10;;;;;;5087730;28;20028;-66
2021/04/07 08:39:49;;;;;;;8.40;2.88;;;9.20;50.60;;;;;;5085689;28;20028;-65
2021/04/07 08:42:16;;;;;;;8.07;3.47;;;9.20;49.90;;;;;;5082117;28;20029;-64
2021/04/07 08:44:50;;;;;;;8.60;3.42;;;9.20;51.20;;;;;;5086611;28;20013;-65
2021/04/07 08:47:28;;;;;;;5.45;2.90;;;9.30;50.50;;;;;;5073637;28;20020;-65
2021/04/07 08:50:06;;;;;;;7.18;3.63;;;9.30;51.00;;;;;;5072955;28;20482;-65
2021/04/07 08:52:45;;;;;;;4.05;2.90;;;9.40;50.10;;;;;;5094062;28;20021;-66
2021/04/07 08:55:24;;;;;;;4.50;3.28;;;9.30;48.50;;;;;;5077919;28;20016;-66
2021/04/07 08:58:00;;;;;;;13.90;2.83;;;9.30;48.70;;;;;;5076015;28;20020;-65
2021/04/07 09:00:27;;;;;;;6.72;3.45;;;9.30;49.10;;;;;;5085938;28;20017;-68
2021/04/07 09:02:56;;;;;;;6.95;3.03;;;9.20;49.20;;;;;;5082780;28;20033;-66
2021/04/07 09:05:35;;;;;;;5.30;3.17;;;9.20;49.40;;;;;;5093231;28;20019;-64
2021/04/07 09:08:02;;;;;;;6.47;3.60;;;9.30;49.60;;;;;;5084050;28;20132;-66
2021/04/07 09:10:50;;;;;;;8.52;3.28;;;9.30;48.80;;;;;;5076644;28;20024;-65
2021/04/07 09:13:30;;;;;;;6.97;3.20;;;9.30;49.20;;;;;;5087194;28;20114;-64
2021/04/07 09:16:01;;;;;;;6.68;2.95;;;9.30;48.30;;;;;;5086379;28;20069;-65
2021/04/07 09:18:42;;;;;;;5.50;3.15;;;9.30;47.70;;;;;;5074515;28;20025;-65
2021/04/07 09:21:30;;;;;;;7.35;4.00;;;9.20;47.20;;;;;;5090446;28;20043;-65
2021/04/07 09:23:59;;;;;;;6.18;3.67;;;9.30;48.30;;;;;;5088480;28;20016;-66
2021/04/07 09:26:27;;;;;;;5.82;3.30;;;9.40;48.60;;;;;;5084400;28;20073;-66
2021/04/07 09:28:54;;;;;;;10.40;3.58;;;9.40;48.20;;;;;;5089579;28;20024;-66
2021/04/07 09:31:20;;;;;;;6.47;3.50;;;9.40;47.70;;;;;;5088259;28;20016;-66
2021/04/07 09:33:48;;;;;;;14.10;3.53;;;9.40;47.90;;;;;;5087760;28;20028;-65
2021/04/07 09:36:15;;;;;;;13.38;3.42;;;9.50;48.30;;;;;;5074225;28;20036;-64
2021/04/07 09:38:49;;;;;;;6.78;3.20;;;9.50;48.10;;;;;;5056361;28;20024;-66
2021/04/07 09:41:22;;;;;;;7.43;3.50;;;9.50;47.60;;;;;;5074138;28;20028;-65
2021/04/07 09:43:48;;;;;;;5.10;3.38;;;9.50;47.60;;;;;;5069069;28;20035;-66
2021/04/07 09:46:14;;;;;;;7.05;3.15;;;9.50;47.80;;;;;;5094067;28;20020;-64
2021/04/07 09:48:44;;;;;;;10.23;3.35;;;9.40;46.00;;;;;;5093868;28;20612;-65
2021/04/07 09:51:31;;;;;;;6.70;3.45;;;9.40;47.00;;;;;;5075870;28;20012;-65
2021/04/07 09:54:16;;;;;;;4.65;2.75;;;9.40;46.40;;;;;;5093668;28;20389;-66
2021/04/07 09:56:45;;;;;;;;;;;9.30;45.30;;;;;;5094523;28;20020;-66
2021/04/07 09:59:11;;;;;;;13.68;3.08;;;9.30;47.20;;;;;;5093414;28;19908;-66
2021/04/07 10:01:40;;;;;;;6.20;2.40;;;9.20;46.10;;;;;;5074530;28;20073;-65
2021/04/07 10:04:07;;;;;;;6.53;2.90;;;9.30;46.50;;;;;;5073607;28;20092;-65
2021/04/07 10:06:33;;;;;;;5.40;2.92;;;9.40;47.60;;;;;;5073559;28;20028;-66
2021/04/07 10:09:04;;;;;;;5.07;2.28;;;9.50;46.10;;;;;;5089181;28;20043;-64
2021/04/07 10:11:30;;;;;;;8.90;2.92;;;9.60;45.40;;;;;;5093664;28;20095;-66
2021/04/07 10:13:58;;;;;;;5.00;2.40;;;9.70;45.10;;;;;;5093774;28;20389;-64
2021/04/07 10:16:25;;;;;;;3.78;2.80;;;9.70;44.20;;;;;;5093577;28;20028;-64
2021/04/07 10:18:51;;;;;;;6.13;2.35;;;9.70;44.30;;;;;;5093585;28;20024;-64
2021/04/07 10:21:19;;;;;;;4.18;2.42;;;9.70;43.50;;;;;;5072564;28;20024;-65
2021/04/07 10:23:47;;;;;;;5.90;2.70;;;9.60;43.20;;;;;;5055254;28;20406;-66
2021/04/07 10:26:14;;;;;;;5.65;2.03;;;9.70;44.30;;;;;;5073215;28;20494;-64
2021/04/07 10:28:40;;;;;;;3.80;1.95;;;9.70;42.70;;;;;;5090846;28;20442;-65
2021/04/07 10:31:15;;;;;;;5.25;2.33;;;9.60;43.10;;;;;;5073078;28;20484;-65
2021/04/07 10:33:41;;;;;;;5.30;2.10;;;9.70;41.60;;;;;;5072584;28;20068;-65
2021/04/07 10:36:06;;;;;;;5.88;1.73;;;9.70;41.10;;;;;;5086700;28;20048;-65
2021/04/07 10:38:36;;;;;;;6.53;2.33;;;9.60;41.20;;;;;;5092054;28;20031;-65
2021/04/07 10:41:04;;;;;;;7.35;2.97;;;9.50;41.70;;;;;;5092940;28;20119;-66
2021/04/07 10:43:43;;;;;;;10.20;2.33;;;9.50;42.60;;;;;;5092851;28;20020;-66
2021/04/07 10:46:10;;;;;;;9.40;3.13;;;9.40;41.80;;;;;;5092914;28;20024;-67
2021/04/07 10:48:37;;;;;;;4.93;3.08;;;9.30;41.60;;;;;;5085610;28;20096;-64
2021/04/07 10:51:03;;;;;;;5.10;2.72;;;9.20;42.40;;;;;;5092781;28;20035;-65
2021/04/07 10:53:38;;;;;;;4.43;2.47;;;9.20;44.50;;;;;;5092799;28;20045;-64
2021/04/07 10:56:18;;;;;;;3.97;2.30;;;9.20;45.00;;;;;;5084647;28;20100;-65
2021/04/07 10:58:44;;;;;;;7.55;2.65;;;9.10;45.20;;;;;;5089235;28;20024;-66
2021/04/07 11:01:10;;;;;;;7.88;3.17;;;9.10;46.00;;;;;;5087997;28;20043;-64
2021/04/07 11:03:36;;;;;;;5.93;3.70;;;9.10;45.90;;;;;;5090154;28;20037;-65
2021/04/07 11:06:02;;;;;;;7.20;3.33;;;9.10;45.90;;;;;;5087508;28;20034;-66
2021/04/07 11:08:36;;;;;;;5.72;3.00;;;9.20;46.60;;;;;;5091988;28;20020;-65
2021/04/07 11:11:03;;;;;;;4.13;2.67;;;9.30;46.00;;;;;;5082844;28;20501;-67
2021/04/07 11:13:29;;;;;;;6.05;2.70;;;9.30;45.00;;;;;;5084113;28;20026;-67
2021/04/07 11:16:06;;;;;;;5.80;2.50;;;9.20;45.60;;;;;;5091656;28;20542;-67
2021/04/07 11:18:32;;;;;;;5.40;2.47;;;9.10;46.00;;;;;;5087178;28;20027;-66
2021/04/07 11:20:58;;;;;;;4.82;2.60;;;9.00;46.50;;;;;;5089267;28;20031;-68
2021/04/07 11:23:23;;;;;;;4.70;2.63;;;8.90;47.00;;;;;;5071971;28;20424;-67
2021/04/07 11:25:51;;;;;;;8.30;3.00;;;8.80;47.60;;;;;;5086359;28;20358;-67
2021/04/07 11:28:18;;;;;;;4.97;3.13;;;8.80;48.10;;;;;;5063537;28;20111;-68
2021/04/07 11:33:40;;;;;;;21.80;6.07;;;9.00;48.60;;;;;;5075353;28;20583;-69
2021/04/07 11:38:34;;;;;;;6.93;3.47;;;9.20;47.80;;;;;;5089261;28;20028;-69
2021/04/07 11:44:23;;;;;;;8.52;3.10;;;9.40;47.70;;;;;;5084822;28;20032;-69
2021/04/07 11:46:22;;;;;;;3.75;2.47;;;9.40;48.00;;;;;;5075522;28;20131;-70
2021/04/07 11:48:47;;;;;;;2.40;1.90;;;9.50;49.30;;;;;;5060526;28;20128;-67
2021/04/07 11:51:13;;;;;;;2.42;1.80;;;9.50;49.20;;;;;;5071799;28;20024;-68
2021/04/07 11:53:39;;;;;;;5.93;2.28;;;9.40;46.70;;;;;;5081200;28;20028;-70
2021/04/07 11:56:05;;;;;;;4.50;2.47;;;9.40;46.30;;;;;;5073900;28;20043;-71
2021/04/07 11:58:31;;;;;;;5.93;2.75;;;9.40;46.40;;;;;;5081837;28;20028;-70
2021/04/07 12:00:57;;;;;;;3.97;2.38;;;9.50;46.20;;;;;;5060098;28;20035;-69
2021/04/07 12:03:23;;;;;;;9.13;2.65;;;9.60;45.80;;;;;;5078688;28;20376;-71
2021/04/07 12:05:48;;;;;;;7.05;2.75;;;9.70;45.80;;;;;;5065093;28;20505;-71
2021/04/07 12:08:14;;;;;;;5.80;2.40;;;9.80;45.00;;;;;;5078542;28;20029;-69
2021/04/07 12:10:40;;;;;;;5.40;2.45;;;10.00;45.10;;;;;;5078581;28;20029;-70
2021/04/07 12:13:06;;;;;;;3.08;2.17;;;10.10;44.10;;;;;;5077273;28;20026;-71
2021/04/07 12:15:32;;;;;;;3.53;2.30;;;10.10;43.80;;;;;;5080164;28;20094;-71
2021/04/07 12:17:57;;;;;;;7.28;2.30;;;10.20;44.20;;;;;;5071771;28;20058;-71
2021/04/07 12:20:24;;;;;;;4.47;2.30;;;10.10;46.10;;;;;;5062837;28;20024;-68
2021/04/07 12:22:52;;;;;;;5.43;2.50;;;9.80;46.90;;;;;;5081535;28;20040;-68
2021/04/07 12:25:18;;;;;;;3.25;2.03;;;9.50;47.40;;;;;;5075220;28;20020;-68
2021/04/07 12:27:44;;;;;;;5.57;2.72;;;9.30;48.70;;;;;;5090128;28;20103;-69
2021/04/07 12:30:10;;;;;;;7.10;3.03;;;9.10;48.70;;;;;;5077411;28;20034;-68
2021/04/07 12:32:36;;;;;;;5.95;2.78;;;9.00;49.20;;;;;;5087050;28;20441;-67
2021/04/07 12:35:06;;;;;;;5.32;2.72;;;8.80;50.00;;;;;;5088901;28;20048;-68
2021/04/07 12:37:33;;;;;;;5.28;2.72;;;8.70;50.30;;;;;;5089151;28;20466;-68
2021/04/07 12:39:59;;;;;;;4.82;2.67;;;8.60;50.60;;;;;;5085223;28;20495;-67
2021/04/07 12:42:27;;;;;;;5.63;2.33;;;8.50;51.10;;;;;;5085668;28;20103;-66
2021/04/07 12:44:53;;;;;;;3.75;2.08;;;8.50;51.80;;;;;;5085196;28;20442;-67
2021/04/07 12:47:19;;;;;;;4.88;2.80;;;8.40;52.40;;;;;;5088169;28;20415;-66
2021/04/07 12:49:45;;;;;;;8.27;2.72;;;8.40;53.10;;;;;;5081520;28;20048;-66
2021/04/07 12:52:11;;;;;;;6.32;2.90;;;8.40;53.60;;;;;;5091047;28;20533;-67
2021/04/07 12:54:37;;;;;;;7.55;3.30;;;8.60;54.00;;;;;;5087312;28;20025;-66
2021/04/07 12:57:03;;;;;;;9.75;3.05;;;8.70;53.70;;;;;;5072323;28;20052;-66
2021/04/07 12:59:29;;;;;;;6.07;2.70;;;8.80;53.50;;;;;;5071381;28;20085;-68
2021/04/07 13:01:54;;;;;;;8.98;3.42;;;8.90;53.50;;;;;;5091388;28;20467;-68
2021/04/07 13:04:20;;;;;;;4.63;2.47;;;9.10;53.20;;;;;;5056628;28;20040;-68
2021/04/07 13:06:46;;;;;;;5.90;2.40;;;9.20;52.60;;;;;;5074523;28;20028;-68